Time;durP1;ratioP1;P1;durP2;ratioP2;P2;SDS_P1;SDS_P2;PMS_P1;PMS_P2;Temp;Humidity;BMP_temperature;BMP_pressure;BME280_temperature;BME280_humidity;BME280_pressure;Samples;Min_cycle;Max_cycle;Signal;HPM_P1;HPM_P2
2022/01/15 00:01:45;;;;;;;32.55;15.45;;;6.50;99.90;;;;;;4999640;28;20128;-81
2022/01/15 00:04:11;;;;;;;48.17;16.42;;;6.50;99.90;;;;;;5015819;28;20042;-81
2022/01/15 00:06:37;;;;;;;29.50;14.38;;;6.50;99.90;;;;;;4999414;28;20550;-81
2022/01/15 00:09:04;;;;;;;31.13;14.70;;;6.50;99.90;;;;;;5016169;28;20037;-81
2022/01/15 00:11:30;;;;;;;30.83;15.10;;;6.60;99.90;;;;;;4998518;28;20044;-81
2022/01/15 00:14:12;;;;;;;33.60;14.93;;;6.60;99.90;;;;;;4999723;28;20071;-81
2022/01/15 00:16:49;;;;;;;33.13;14.90;;;6.50;99.90;;;;;;4987461;28;20042;-81
2022/01/15 00:19:17;;;;;;;28.30;14.35;;;6.50;99.90;;;;;;5015835;28;20144;-81
2022/01/15 00:21:43;;;;;;;29.58;14.18;;;6.50;99.90;;;;;;5026153;28;20486;-81
2022/01/15 00:24:09;;;;;;;26.80;13.65;;;6.50;99.90;;;;;;5015526;28;20038;-81
2022/01/15 00:26:35;;;;;;;27.45;13.75;;;6.50;99.90;;;;;;5031018;28;20548;-81
2022/01/15 00:29:01;;;;;;;34.08;14.77;;;6.50;99.90;;;;;;5015759;28;20120;-81
2022/01/15 00:31:27;;;;;;;28.20;13.55;;;6.50;99.90;;;;;;5032022;28;20509;-81
2022/01/15 00:33:53;;;;;;;31.73;14.98;;;6.50;99.90;;;;;;5015506;28;20045;-81
2022/01/15 00:36:20;;;;;;;34.58;16.05;;;6.40;99.90;;;;;;5031968;28;20404;-81
2022/01/15 00:38:46;;;;;;;30.45;15.10;;;6.50;99.90;;;;;;5015360;28;20485;-81
2022/01/15 00:41:12;;;;;;;34.33;16.17;;;6.40;99.90;;;;;;5015801;28;20083;-81
2022/01/15 00:43:40;;;;;;;50.10;17.85;;;6.40;99.90;;;;;;5021794;28;20044;-81
2022/01/15 00:46:06;;;;;;;45.38;17.27;;;6.40;99.90;;;;;;5038186;28;20048;-81
2022/01/15 00:48:31;;;;;;;37.83;16.42;;;6.40;99.90;;;;;;5021872;28;20409;-81
2022/01/15 00:50:57;;;;;;;34.78;15.88;;;6.40;99.90;;;;;;5021306;28;20045;-81
2022/01/15 00:53:23;;;;;;;30.95;15.18;;;6.40;99.90;;;;;;5038354;28;20519;-81
2022/01/15 00:55:49;;;;;;;31.00;15.73;;;6.40;99.90;;;;;;5020910;28;20480;-81
2022/01/15 00:58:14;;;;;;;50.85;18.40;;;6.40;99.90;;;;;;5021823;28;20060;-81
2022/01/15 01:00:40;;;;;;;32.15;15.30;;;6.60;99.90;;;;;;5021593;28;20045;-81
2022/01/15 01:03:06;;;;;;;27.90;14.18;;;6.40;99.90;;;;;;5021737;28;20428;-81
2022/01/15 01:05:32;;;;;;;29.75;14.57;;;6.40;99.90;;;;;;5037898;28;20124;-81
2022/01/15 01:07:58;;;;;;;28.20;14.80;;;6.40;99.90;;;;;;5021686;28;20149;-81
2022/01/15 01:23:33;;;;;;;25.35;13.40;;;6.40;99.90;;;;;;5018380;28;20056;-81
2022/01/15 01:26:07;;;;;;;32.10;14.70;;;6.40;99.90;;;;;;5017086;28;20445;-81
2022/01/15 01:28:45;;;;;;;34.97;14.65;;;6.40;99.90;;;;;;5018333;28;20042;-81
2022/01/15 01:31:20;;;;;;;32.42;14.10;;;6.40;99.90;;;;;;5018351;28;20397;-81
2022/01/15 01:33:50;;;;;;;32.58;15.23;;;6.40;99.90;;;;;;5034876;28;20046;-82
2022/01/15 01:41:14;;;;;;;39.63;15.23;;;6.30;99.90;;;;;;5033860;28;20041;-81
2022/01/15 01:43:44;;;;;;;28.17;13.63;;;6.40;99.90;;;;;;5018502;28;20080;-81
2022/01/15 01:48:45;;;;;;;42.92;15.02;;;6.40;99.90;;;;;;5038009;28;20542;-81
2022/01/15 01:51:21;;;;;;;26.52;13.10;;;6.30;99.90;;;;;;5020906;28;20045;-81
2022/01/15 01:53:49;;;;;;;29.17;13.55;;;6.30;99.90;;;;;;5034880;28;20057;-81
2022/01/15 01:56:15;;;;;;;39.35;14.85;;;6.40;99.90;;;;;;5034050;28;20393;-81
2022/01/15 01:58:41;;;;;;;33.58;14.30;;;6.40;99.90;;;;;;5018206;28;20511;-81
2022/01/15 02:01:06;;;;;;;28.58;13.27;;;6.40;99.90;;;;;;5001607;28;20041;-82
2022/01/15 02:03:32;;;;;;;27.70;13.20;;;6.40;99.90;;;;;;5034791;28;20044;-82
2022/01/15 02:05:58;;;;;;;27.40;13.38;;;6.70;99.90;;;;;;5017867;28;20044;-82
2022/01/15 02:08:25;;;;;;;44.72;14.60;;;6.40;99.90;;;;;;5017902;28;20048;-82
2022/01/15 02:10:50;;;;;;;25.80;13.00;;;6.40;99.90;;;;;;5033748;28;20045;-81
2022/01/15 02:13:18;;;;;;;32.30;13.35;;;6.40;99.90;;;;;;5030097;28;20068;-81
2022/01/15 02:15:44;;;;;;;69.72;16.02;;;6.40;99.90;;;;;;4997675;28;20049;-81
2022/01/15 02:18:11;;;;;;;93.93;18.42;;;6.40;99.90;;;;;;5014495;28;20149;-81
2022/01/15 02:23:31;;;;;;;36.35;13.63;;;6.30;99.90;;;;;;5029549;28;20063;-82
2022/01/15 02:23:33;;;;;;;27.23;12.95;;;6.30;99.90;;;;;;5020442;28;20045;-82
2022/01/15 02:26:03;;;;;;;27.42;13.45;;;6.30;99.90;;;;;;5001483;28;20037;-82
2022/01/15 02:28:34;;;;;;;24.58;12.27;;;6.30;99.90;;;;;;5017712;28;20102;-82
2022/01/15 02:31:04;;;;;;;26.63;12.98;;;6.30;99.90;;;;;;5017599;28;20049;-82
2022/01/15 02:33:30;;;;;;;27.00;12.75;;;6.30;99.90;;;;;;5017401;28;20071;-82
2022/01/15 02:35:57;;;;;;;29.02;13.00;;;6.30;99.90;;;;;;5000949;28;20045;-82
2022/01/15 02:38:23;;;;;;;32.85;13.63;;;6.30;99.90;;;;;;4985135;28;20064;-82
2022/01/15 02:40:49;;;;;;;28.58;12.90;;;6.30;99.90;;;;;;5016829;28;20485;-82
2022/01/15 02:43:19;;;;;;;25.85;12.07;;;6.30;99.90;;;;;;5034196;28;20374;-82
2022/01/15 02:45:55;;;;;;;23.63;11.25;;;6.40;99.90;;;;;;5016980;28;20049;-82
2022/01/15 02:48:24;;;;;;;20.45;10.45;;;6.30;99.90;;;;;;5034057;28;20049;-82
2022/01/15 02:50:50;;;;;;;19.88;10.23;;;6.30;99.90;;;;;;5016754;28;20115;-82
2022/01/15 02:53:16;;;;;;;20.90;10.52;;;6.30;99.90;;;;;;5000968;28;20053;-82
2022/01/15 02:55:48;;;;;;;19.77;10.25;;;6.30;99.90;;;;;;5016313;28;20448;-81
2022/01/15 02:58:15;;;;;;;13.05;7.07;;;6.30;99.90;;;;;;5017182;28;20509;-81
2022/01/15 03:00:41;;;;;;;17.42;9.05;;;6.30;99.90;;;;;;5017009;28;20077;-81
2022/01/15 03:03:07;;;;;;;17.58;8.18;;;6.20;99.90;;;;;;5033873;28;20404;-81
2022/01/15 03:05:33;;;;;;;15.60;8.10;;;6.30;99.90;;;;;;5016601;28;20120;-81
2022/01/15 03:07:59;;;;;;;16.17;8.52;;;6.30;99.90;;;;;;5017097;28;20424;-81
2022/01/15 03:10:24;;;;;;;19.40;8.73;;;6.20;99.90;;;;;;4996255;28;20042;-81
2022/01/15 03:12:53;;;;;;;15.07;8.05;;;6.30;99.90;;;;;;4997111;28;20045;-81
2022/01/15 03:15:19;;;;;;;16.92;8.05;;;6.30;99.90;;;;;;4997114;28;20103;-81
2022/01/15 03:17:47;;;;;;;17.70;8.38;;;6.20;99.90;;;;;;4996905;28;20042;-81
2022/01/15 03:20:14;;;;;;;14.85;7.93;;;6.20;99.90;;;;;;4996880;28;20100;-81
2022/01/15 03:22:40;;;;;;;15.20;8.25;;;6.30;99.90;;;;;;5013499;28;20470;-81
2022/01/15 03:25:06;;;;;;;13.25;7.22;;;6.20;99.90;;;;;;4997134;28;20139;-81
2022/01/15 03:27:32;;;;;;;14.15;7.53;;;6.20;99.90;;;;;;4996174;28;20494;-81
2022/01/15 03:29:58;;;;;;;15.57;7.60;;;6.20;99.90;;;;;;4996638;28;20048;-81
2022/01/15 03:32:24;;;;;;;14.13;7.63;;;6.20;99.90;;;;;;4996806;28;20037;-81
2022/01/15 03:34:50;;;;;;;14.43;7.43;;;6.20;99.90;;;;;;4996756;28;20045;-81
2022/01/15 03:37:16;;;;;;;16.77;7.55;;;6.20;99.90;;;;;;5029197;28;20040;-81
2022/01/15 03:39:43;;;;;;;18.45;7.80;;;6.20;99.90;;;;;;5012989;28;20077;-81
2022/01/15 03:42:12;;;;;;;14.98;8.13;;;6.10;99.90;;;;;;5012289;28;20081;-81
2022/01/15 03:44:43;;;;;;;16.08;7.82;;;6.20;99.90;;;;;;4996945;28;20034;-81
2022/01/15 03:47:10;;;;;;;16.90;7.95;;;6.20;99.90;;;;;;4996720;28;20375;-82
2022/01/15 03:49:37;;;;;;;21.45;9.13;;;6.20;99.90;;;;;;5010645;28;20042;-82
2022/01/15 03:52:04;;;;;;;13.75;7.40;;;6.20;99.90;;;;;;5035460;28;20049;-82
2022/01/15 03:54:30;;;;;;;14.63;7.43;;;6.10;99.90;;;;;;5019267;28;20123;-82
2022/01/15 03:56:55;;;;;;;16.20;7.65;;;6.10;99.90;;;;;;5001732;28;20124;-82
2022/01/15 03:59:21;;;;;;;15.25;7.78;;;6.10;99.90;;;;;;5019162;28;20408;-81
2022/01/15 04:01:47;;;;;;;14.35;7.93;;;6.10;99.90;;;;;;5035354;28;20036;-81
2022/01/15 04:04:13;;;;;;;14.48;7.35;;;6.10;99.90;;;;;;5002665;28;20397;-81
2022/01/15 04:06:39;;;;;;;16.67;8.05;;;6.10;99.90;;;;;;5018836;28;20496;-81
2022/01/15 04:09:05;;;;;;;15.95;7.90;;;6.10;99.90;;;;;;5035594;28;20448;-81
2022/01/15 04:11:30;;;;;;;14.10;7.28;;;6.10;99.90;;;;;;5034305;28;20044;-81
2022/01/15 04:13:56;;;;;;;14.30;7.15;;;6.10;99.90;;;;;;5035638;28;20045;-81
2022/01/15 04:16:22;;;;;;;14.63;6.97;;;6.10;99.90;;;;;;5017978;28;20086;-81
2022/01/15 04:18:48;;;;;;;14.80;7.25;;;6.20;99.90;;;;;;5018871;28;20035;-81
2022/01/15 04:21:14;;;;;;;12.68;6.57;;;6.10;99.90;;;;;;5002277;28;20045;-81
2022/01/15 04:23:40;;;;;;;12.73;7.15;;;6.10;99.90;;;;;;5018990;28;20033;-81
2022/01/15 04:26:06;;;;;;;15.23;7.38;;;6.10;99.90;;;;;;5017986;28;20032;-81
2022/01/15 04:28:33;;;;;;;15.15;7.97;;;6.10;99.90;;;;;;5018859;28;20043;-81
2022/01/15 04:31:05;;;;;;;14.82;7.80;;;6.00;99.90;;;;;;5002440;28;20102;-81
2022/01/15 04:33:35;;;;;;;14.27;7.40;;;6.10;99.90;;;;;;5019061;28;20072;-81
2022/01/15 04:36:03;;;;;;;16.48;7.53;;;6.10;99.90;;;;;;5018702;28;20063;-81
2022/01/15 04:38:30;;;;;;;14.65;7.38;;;6.10;99.90;;;;;;5035072;28;20462;-81
2022/01/15 04:40:56;;;;;;;17.50;7.63;;;6.00;99.90;;;;;;5034378;28;20466;-81
2022/01/15 04:43:22;;;;;;;24.90;8.50;;;6.10;99.90;;;;;;5018423;28;20079;-81
2022/01/15 04:45:48;;;;;;;18.10;7.85;;;6.10;99.90;;;;;;5034716;28;20036;-81
2022/01/15 04:48:14;;;;;;;19.08;8.52;;;6.00;99.90;;;;;;5035434;28;20052;-81
2022/01/15 04:50:40;;;;;;;14.48;7.35;;;6.00;99.90;;;;;;5018283;28;20137;-81
2022/01/15 04:53:08;;;;;;;17.33;8.38;;;6.00;99.90;;;;;;5018831;28;20045;-81
2022/01/15 04:55:34;;;;;;;26.75;9.13;;;6.10;99.90;;;;;;5017888;28;20088;-81
2022/01/15 04:58:00;;;;;;;15.70;8.13;;;6.00;99.90;;;;;;5034710;28;20037;-81
2022/01/15 05:00:26;;;;;;;17.35;8.20;;;6.10;99.90;;;;;;5014926;28;20041;-81
2022/01/15 05:02:51;;;;;;;16.25;8.40;;;6.00;99.90;;;;;;5015003;28;20038;-81
2022/01/15 05:05:17;;;;;;;16.55;8.18;;;6.00;99.90;;;;;;4982406;28;20038;-81
2022/01/15 05:07:43;;;;;;;16.77;7.70;;;6.00;99.90;;;;;;4998551;28;20509;-81
2022/01/15 05:10:13;;;;;;;14.60;7.25;;;6.00;99.90;;;;;;5028224;28;20049;-81
2022/01/15 05:12:44;;;;;;;16.95;8.15;;;6.00;99.90;;;;;;5014869;28;20401;-81
2022/01/15 05:15:12;;;;;;;15.20;7.47;;;6.00;99.90;;;;;;5015050;28;20468;-81
2022/01/15 05:17:38;;;;;;;14.90;7.25;;;6.00;99.90;;;;;;5015125;28;20041;-81
2022/01/15 05:20:05;;;;;;;17.92;8.27;;;6.00;99.90;;;;;;5014898;28;20045;-81
2022/01/15 05:22:32;;;;;;;18.45;8.23;;;6.00;99.90;;;;;;5014931;28;20041;-81
2022/01/15 05:24:58;;;;;;;16.38;7.70;;;6.00;99.90;;;;;;5014839;28;20120;-81
2022/01/15 05:27:24;;;;;;;15.23;7.60;;;6.00;99.90;;;;;;5013948;28;20121;-81
2022/01/15 05:29:49;;;;;;;15.80;7.18;;;6.00;99.90;;;;;;5017601;28;20049;-81
2022/01/15 05:32:18;;;;;;;16.13;7.80;;;6.00;99.90;;;;;;5018402;28;20056;-81
2022/01/15 05:34:45;;;;;;;15.13;7.53;;;6.00;99.90;;;;;;5018545;28;20052;-81
2022/01/15 05:37:11;;;;;;;20.67;8.10;;;6.00;99.90;;;;;;5018246;28;20160;-81
2022/01/15 05:39:37;;;;;;;14.80;7.50;;;6.00;99.90;;;;;;5018800;28;20065;-81
2022/01/15 05:42:02;;;;;;;20.13;8.10;;;6.00;99.90;;;;;;5017277;28;20040;-81
2022/01/15 05:44:28;;;;;;;14.32;7.78;;;6.00;99.90;;;;;;5018150;28;20037;-82
2022/01/15 05:46:54;;;;;;;15.73;7.60;;;6.00;99.90;;;;;;5018261;28;20038;-82
2022/01/15 05:49:20;;;;;;;16.58;8.20;;;6.00;99.90;;;;;;5029089;28;20067;-82
2022/01/15 05:51:46;;;;;;;16.98;8.25;;;6.00;99.90;;;;;;5021135;28;20098;-82
2022/01/15 05:54:13;;;;;;;17.88;8.20;;;6.00;99.90;;;;;;5038051;28;20052;-82
2022/01/15 05:56:39;;;;;;;16.10;8.27;;;6.00;99.90;;;;;;5020622;28;20098;-82
2022/01/15 05:59:06;;;;;;;20.00;8.70;;;5.90;99.90;;;;;;5037879;28;20048;-82
2022/01/15 06:01:33;;;;;;;19.92;8.88;;;5.90;99.90;;;;;;5021525;28;20475;-82
2022/01/15 06:03:59;;;;;;;16.20;8.13;;;5.90;99.90;;;;;;5021338;28;20079;-82
2022/01/15 06:06:24;;;;;;;17.08;8.38;;;5.90;99.90;;;;;;5021000;28;20072;-82
2022/01/15 06:08:50;;;;;;;14.90;7.93;;;5.90;99.90;;;;;;5037714;28;20037;-82
2022/01/15 06:11:18;;;;;;;21.15;8.80;;;5.90;99.90;;;;;;5036814;28;20037;-82
2022/01/15 06:13:45;;;;;;;17.88;9.10;;;5.90;99.90;;;;;;5005056;28;20037;-82
2022/01/15 06:16:11;;;;;;;20.17;9.07;;;5.90;99.90;;;;;;5037348;28;20055;-82
2022/01/15 06:18:37;;;;;;;18.75;9.00;;;5.90;99.90;;;;;;5021012;28;20123;-82
2022/01/15 06:21:03;;;;;;;19.00;8.90;;;5.90;99.90;;;;;;5037495;28;20518;-82
2022/01/15 06:23:29;;;;;;;17.70;9.18;;;5.90;99.90;;;;;;5037816;28;20450;-82
2022/01/15 06:25:55;;;;;;;18.25;9.23;;;5.90;99.90;;;;;;5003494;28;20037;-82
2022/01/15 06:28:21;;;;;;;17.67;9.00;;;5.90;99.90;;;;;;5037420;28;20128;-82
2022/01/15 06:30:47;;;;;;;16.42;8.35;;;5.90;99.90;;;;;;5020759;28;20099;-82
2022/01/15 06:33:13;;;;;;;18.92;9.43;;;5.90;99.90;;;;;;5004640;28;20133;-82
2022/01/15 06:35:40;;;;;;;17.63;8.73;;;5.90;99.90;;;;;;5004501;28;20125;-82
2022/01/15 06:38:06;;;;;;;17.88;9.43;;;5.90;99.90;;;;;;5037232;28;20036;-82
2022/01/15 06:40:32;;;;;;;16.77;9.38;;;5.90;99.90;;;;;;5019113;28;20045;-82
2022/01/15 06:43:00;;;;;;;21.88;9.30;;;5.90;99.90;;;;;;5020611;28;20382;-82
2022/01/15 06:45:28;;;;;;;17.08;8.90;;;5.90;99.90;;;;;;5036838;28;20063;-82
2022/01/15 06:47:54;;;;;;;25.38;10.07;;;5.90;99.90;;;;;;5037255;28;20076;-82
2022/01/15 06:50:22;;;;;;;19.63;9.88;;;5.90;99.90;;;;;;5003831;28;20169;-82
2022/01/15 06:52:49;;;;;;;18.50;9.98;;;5.90;99.90;;;;;;5020880;28;20057;-82
2022/01/15 06:55:16;;;;;;;17.15;9.10;;;5.90;99.90;;;;;;5028292;28;20045;-82
2022/01/15 06:57:42;;;;;;;19.98;9.40;;;5.90;99.90;;;;;;5000013;28;20447;-82
2022/01/15 07:00:09;;;;;;;18.27;8.77;;;5.90;99.90;;;;;;5015612;28;20033;-82
2022/01/15 07:02:36;;;;;;;18.35;9.50;;;5.80;99.90;;;;;;5019914;28;20041;-82
2022/01/15 07:05:02;;;;;;;17.58;8.80;;;5.80;99.90;;;;;;5036217;28;20086;-82
2022/01/15 07:07:28;;;;;;;17.20;9.10;;;5.80;99.90;;;;;;5019776;28;20073;-82
2022/01/15 07:09:53;;;;;;;18.13;9.25;;;5.80;99.90;;;;;;5036244;28;20084;-82
2022/01/15 07:12:19;;;;;;;17.63;8.90;;;5.80;99.90;;;;;;5034789;28;20037;-82
2022/01/15 07:14:45;;;;;;;18.38;9.45;;;5.80;99.90;;;;;;5035766;28;20041;-82
2022/01/15 07:17:11;;;;;;;17.30;8.88;;;5.80;99.90;;;;;;5017655;28;20410;-82
2022/01/15 07:19:37;;;;;;;17.75;9.15;;;5.80;99.90;;;;;;5018686;28;20037;-82
2022/01/15 07:22:04;;;;;;;19.15;9.02;;;5.90;99.90;;;;;;5035552;28;20037;-82
2022/01/15 07:24:30;;;;;;;19.40;9.23;;;5.90;99.90;;;;;;5018980;28;20037;-82
2022/01/15 07:26:56;;;;;;;17.20;8.48;;;5.90;99.90;;;;;;5026816;28;20038;-82
2022/01/15 07:29:24;;;;;;;16.02;8.80;;;5.90;99.90;;;;;;5016312;28;20524;-82
2022/01/15 07:31:51;;;;;;;18.63;9.25;;;6.00;99.90;;;;;;5011909;28;20120;-82
2022/01/15 07:34:17;;;;;;;16.27;8.68;;;6.00;99.90;;;;;;5022050;28;20076;-82
2022/01/15 07:36:46;;;;;;;17.52;9.15;;;6.00;99.90;;;;;;5018655;28;20040;-82
2022/01/15 07:39:12;;;;;;;19.80;10.10;;;6.00;99.90;;;;;;5035971;28;20041;-82
2022/01/15 07:41:38;;;;;;;23.10;10.70;;;5.90;99.90;;;;;;5034983;28;20516;-82
2022/01/15 07:44:04;;;;;;;24.25;11.48;;;5.90;99.90;;;;;;5019383;28;20089;-82
2022/01/15 07:46:30;;;;;;;23.33;11.60;;;5.80;99.90;;;;;;5035918;28;20500;-82
2022/01/15 07:48:56;;;;;;;28.63;12.73;;;5.80;99.90;;;;;;5019506;28;20068;-82
2022/01/15 07:51:21;;;;;;;28.77;13.68;;;5.80;99.90;;;;;;5023262;28;20109;-82
2022/01/15 07:53:47;;;;;;;23.48;13.10;;;5.90;99.90;;;;;;5016505;28;20045;-82
2022/01/15 07:56:13;;;;;;;25.23;14.38;;;5.90;99.90;;;;;;5018602;28;20440;-81
2022/01/15 07:58:39;;;;;;;23.88;13.55;;;5.90;99.90;;;;;;5052316;28;20056;-81
2022/01/15 08:01:05;;;;;;;23.88;13.88;;;5.90;99.90;;;;;;5016119;28;20044;-81
2022/01/15 08:03:31;;;;;;;23.23;12.70;;;6.00;99.90;;;;;;5023138;28;20562;-81
2022/01/15 08:05:57;;;;;;;24.35;13.52;;;5.90;99.90;;;;;;5034616;28;20033;-81
2022/01/15 08:08:22;;;;;;;26.50;13.65;;;5.90;99.90;;;;;;5051660;28;20058;-81
2022/01/15 08:10:48;;;;;;;21.20;12.00;;;6.00;99.90;;;;;;5033686;28;20504;-81
2022/01/15 08:13:14;;;;;;;17.75;9.60;;;6.00;99.90;;;;;;5018722;28;20049;-81
2022/01/15 08:15:39;;;;;;;17.73;10.25;;;6.00;99.90;;;;;;5017859;28;20036;-81
2022/01/15 08:18:05;;;;;;;14.52;8.35;;;5.90;99.90;;;;;;5051402;28;20029;-81
2022/01/15 08:20:31;;;;;;;17.02;9.82;;;6.00;99.90;;;;;;5018200;28;20538;-81
2022/01/15 08:22:57;;;;;;;16.92;9.43;;;6.00;99.90;;;;;;5031410;28;20044;-81
2022/01/15 08:25:24;;;;;;;16.33;9.00;;;5.90;99.90;;;;;;5013321;28;20033;-81
2022/01/15 08:27:52;;;;;;;18.20;10.10;;;5.90;99.90;;;;;;5034766;28;20082;-81
2022/01/15 08:30:19;;;;;;;18.17;10.00;;;5.80;99.90;;;;;;5034355;28;20118;-81
2022/01/15 08:32:45;;;;;;;19.30;10.35;;;5.80;99.90;;;;;;5018736;28;20503;-81
2022/01/15 08:35:11;;;;;;;21.35;11.43;;;5.80;99.90;;;;;;5035127;28;20083;-81
2022/01/15 08:37:38;;;;;;;21.75;11.20;;;5.80;99.90;;;;;;5034963;28;20052;-81
2022/01/15 08:40:06;;;;;;;21.35;10.75;;;5.80;99.90;;;;;;5017890;28;20037;-81
2022/01/15 08:42:32;;;;;;;20.23;11.55;;;5.80;99.90;;;;;;5017127;28;20515;-81
2022/01/15 08:44:58;;;;;;;20.67;11.18;;;5.80;99.90;;;;;;4985712;28;20068;-81
2022/01/15 08:47:23;;;;;;;20.55;11.50;;;5.80;99.90;;;;;;5034272;28;20045;-81
2022/01/15 08:49:49;;;;;;;20.88;11.50;;;5.80;99.90;;;;;;5032900;28;20591;-81
2022/01/15 08:52:15;;;;;;;20.95;11.85;;;5.90;99.90;;;;;;5017520;28;20051;-81
2022/01/15 08:54:40;;;;;;;20.40;11.98;;;5.90;99.90;;;;;;5034362;28;20435;-81
2022/01/15 08:57:06;;;;;;;21.63;12.20;;;5.90;99.90;;;;;;5033261;28;20037;-81
2022/01/15 08:59:32;;;;;;;22.17;12.18;;;5.90;99.90;;;;;;5051059;28;20033;-81
2022/01/15 09:01:59;;;;;;;22.80;12.88;;;5.80;99.90;;;;;;5017679;28;20501;-81
2022/01/15 09:04:25;;;;;;;22.38;12.77;;;5.80;99.90;;;;;;5037465;28;20094;-81
2022/01/15 09:06:51;;;;;;;21.38;12.52;;;5.90;99.90;;;;;;5031057;28;20069;-81
2022/01/15 09:09:18;;;;;;;21.40;12.40;;;5.90;99.90;;;;;;5038102;28;20079;-81
2022/01/15 09:11:44;;;;;;;22.60;13.05;;;5.90;99.90;;;;;;5037125;28;20033;-81
2022/01/15 09:14:11;;;;;;;19.17;11.65;;;6.00;99.90;;;;;;5021813;28;20036;-81
2022/01/15 09:16:38;;;;;;;18.55;11.20;;;5.90;99.90;;;;;;5035555;28;20407;-81
2022/01/15 09:19:04;;;;;;;18.67;12.43;;;5.90;99.90;;;;;;5021284;28;20127;-81
2022/01/15 09:21:30;;;;;;;19.48;11.90;;;5.80;99.90;;;;;;5020984;28;20041;-81
2022/01/15 09:23:56;;;;;;;18.90;11.10;;;5.80;99.90;;;;;;5038258;28;20036;-81
2022/01/15 09:26:23;;;;;;;12.05;6.78;;;5.80;99.90;;;;;;5036899;28;20036;-81
2022/01/15 09:31:34;;;;;;;11.75;7.07;;;5.90;99.90;;;;;;5037332;28;20421;-81
2022/01/15 09:34:01;;;;;;;10.20;6.28;;;6.10;99.90;;;;;;5018130;28;20033;-81
2022/01/15 09:36:26;;;;;;;12.10;8.80;;;6.00;99.90;;;;;;5018174;28;20489;-81
2022/01/15 09:38:52;;;;;;;13.75;9.23;;;5.90;99.90;;;;;;5018229;28;20113;-81
2022/01/15 09:41:19;;;;;;;15.35;10.73;;;5.80;99.90;;;;;;5001420;28;20037;-81
2022/01/15 09:43:45;;;;;;;16.75;11.77;;;5.80;99.90;;;;;;5018080;28;20033;-81
2022/01/15 09:46:11;;;;;;;17.67;12.30;;;5.80;99.90;;;;;;5017664;28;20437;-81
2022/01/15 09:48:38;;;;;;;16.85;11.43;;;5.80;99.90;;;;;;5002426;28;20037;-81
2022/01/15 09:51:05;;;;;;;17.65;11.25;;;5.90;99.90;;;;;;5025004;28;20420;-81
2022/01/15 09:53:33;;;;;;;16.17;11.00;;;6.20;99.90;;;;;;5034459;28;20091;-81
2022/01/15 09:56:00;;;;;;;15.30;9.25;;;6.00;99.90;;;;;;5033748;28;20045;-81
2022/01/15 09:58:26;;;;;;;16.75;12.23;;;5.90;99.90;;;;;;5034578;28;20045;-80
2022/01/15 10:00:51;;;;;;;17.70;12.20;;;5.90;99.90;;;;;;5034379;28;20041;-80
2022/01/15 10:03:19;;;;;;;18.90;13.55;;;5.80;99.90;;;;;;5018273;28;20068;-81
2022/01/15 10:05:45;;;;;;;18.50;12.48;;;5.80;99.90;;;;;;5017494;28;20041;-81
2022/01/15 10:08:13;;;;;;;17.98;12.27;;;5.80;99.90;;;;;;5017494;28;20056;-81
2022/01/15 10:10:46;;;;;;;16.50;10.35;;;5.80;99.90;;;;;;5033272;28;20046;-81
2022/01/15 10:13:23;;;;;;;16.92;11.05;;;5.90;99.90;;;;;;5001740;28;20052;-81
2022/01/15 10:15:58;;;;;;;18.00;12.02;;;5.90;99.90;;;;;;5016979;28;20037;-81
2022/01/15 10:18:26;;;;;;;19.73;13.02;;;5.90;99.90;;;;;;5017790;28;20057;-81
2022/01/15 10:20:55;;;;;;;20.75;13.95;;;5.90;99.90;;;;;;5017423;28;20040;-81
2022/01/15 10:23:25;;;;;;;22.35;14.73;;;5.90;99.90;;;;;;5034301;28;20073;-81
2022/01/15 10:26:10;;;;;;;21.65;14.52;;;5.80;99.90;;;;;;5016720;28;20044;-81
2022/01/15 10:28:57;;;;;;;21.45;13.77;;;5.90;99.90;;;;;;5017913;28;20568;-81
2022/01/15 10:31:28;;;;;;;23.50;14.57;;;5.90;99.90;;;;;;5017614;28;20396;-81
2022/01/15 10:33:56;;;;;;;23.20;14.27;;;6.00;99.90;;;;;;5017623;28;20041;-81
2022/01/15 10:36:24;;;;;;;29.42;18.60;;;5.90;99.90;;;;;;5034010;28;20081;-81
2022/01/15 10:38:51;;;;;;;27.15;18.20;;;5.90;99.90;;;;;;5017318;28;20508;-81
2022/01/15 10:41:49;;;;;;;32.15;19.75;;;5.80;99.90;;;;;;5016557;28;20040;-81
2022/01/15 10:44:37;;;;;;;26.77;16.52;;;5.80;99.90;;;;;;5022675;28;20060;-81
2022/01/15 10:47:06;;;;;;;31.35;19.98;;;5.80;99.90;;;;;;5033572;28;20041;-81
2022/01/15 10:49:32;;;;;;;32.60;20.45;;;5.80;99.90;;;;;;5017143;28;20038;-81
2022/01/15 10:52:08;;;;;;;31.25;20.33;;;5.80;99.90;;;;;;5016677;28;20111;-81
2022/01/15 10:54:49;;;;;;;35.20;21.40;;;5.80;99.90;;;;;;5017298;28;20053;-81
2022/01/15 10:57:17;;;;;;;35.70;20.88;;;5.70;99.90;;;;;;5016104;28;20037;-82
2022/01/15 10:59:55;;;;;;;35.58;21.13;;;5.70;99.90;;;;;;5017449;28;20077;-81
2022/01/15 11:02:21;;;;;;;38.10;22.13;;;5.70;99.90;;;;;;5033557;28;20400;-82
2022/01/15 11:04:47;;;;;;;35.28;21.33;;;5.70;99.90;;;;;;5033339;28;20120;-82
2022/01/15 11:07:15;;;;;;;41.35;23.30;;;5.70;99.90;;;;;;5016645;28;20132;-82
2022/01/15 11:09:45;;;;;;;36.03;21.90;;;5.70;99.90;;;;;;5017132;28;20037;-82
2022/01/15 11:12:12;;;;;;;33.72;21.50;;;5.70;99.90;;;;;;5015943;28;20041;-81
2022/01/15 11:14:37;;;;;;;37.00;21.85;;;5.80;99.90;;;;;;5000871;28;20045;-81
2022/01/15 11:17:04;;;;;;;34.33;21.35;;;5.70;99.90;;;;;;5016575;28;20124;-81
2022/01/15 11:19:32;;;;;;;35.72;21.73;;;5.70;99.90;;;;;;4984169;28;20042;-81
2022/01/15 11:21:58;;;;;;;32.92;21.40;;;5.70;99.90;;;;;;5033058;28;20394;-81
2022/01/15 11:24:24;;;;;;;33.60;21.73;;;5.70;99.90;;;;;;5000258;28;20090;-81
2022/01/15 11:26:54;;;;;;;31.63;19.70;;;5.60;99.90;;;;;;4999387;28;20125;-81
2022/01/15 11:29:21;;;;;;;25.08;14.60;;;5.70;99.90;;;;;;5016875;28;20049;-81
2022/01/15 11:31:50;;;;;;;23.67;14.35;;;5.80;99.90;;;;;;5000023;28;20091;-81
2022/01/15 11:34:19;;;;;;;26.73;18.08;;;5.80;99.90;;;;;;5016397;28;20050;-81
2022/01/15 11:36:46;;;;;;;22.65;14.65;;;5.80;99.90;;;;;;5032573;28;20045;-81
2022/01/15 11:39:32;;;;;;;20.17;13.68;;;5.80;99.90;;;;;;5032634;28;20057;-81
2022/01/15 11:42:01;;;;;;;21.48;14.82;;;5.80;99.90;;;;;;5015284;28;20038;-81
2022/01/15 11:44:32;;;;;;;21.17;13.57;;;5.70;99.90;;;;;;5016916;28;20400;-81
2022/01/15 11:47:15;;;;;;;21.95;14.65;;;5.70;99.90;;;;;;5015877;28;20136;-81
2022/01/15 11:49:46;;;;;;;18.05;12.30;;;5.60;99.90;;;;;;5016186;28;20065;-81
2022/01/15 11:52:13;;;;;;;18.83;12.55;;;5.60;99.90;;;;;;5015592;28;20058;-81
2022/01/15 11:54:41;;;;;;;18.60;11.02;;;5.60;99.90;;;;;;5032442;28;20042;-81
2022/01/15 11:57:22;;;;;;;19.83;12.48;;;5.60;99.90;;;;;;5031549;28;20047;-81
2022/01/15 11:59:53;;;;;;;20.38;12.57;;;5.60;99.90;;;;;;5012786;28;20053;-81
2022/01/15 12:02:31;;;;;;;21.83;14.47;;;5.60;99.90;;;;;;5029209;28;20504;-81
2022/01/15 12:05:18;;;;;;;22.00;14.90;;;5.60;99.90;;;;;;5029150;28;20273;-81
2022/01/15 12:07:59;;;;;;;19.50;12.73;;;5.50;99.90;;;;;;5012594;28;20053;-81
2022/01/15 12:10:38;;;;;;;21.23;15.25;;;5.50;99.90;;;;;;5011556;28;20042;-81
2022/01/15 12:13:18;;;;;;;22.67;16.40;;;5.50;99.90;;;;;;5012509;28;20057;-81
2022/01/15 12:15:45;;;;;;;29.98;19.08;;;5.50;99.90;;;;;;5012499;28;20042;-81
2022/01/15 12:18:19;;;;;;;30.02;19.95;;;5.40;99.90;;;;;;5012458;28;20038;-81
2022/01/15 12:20:46;;;;;;;26.38;18.52;;;5.40;99.90;;;;;;5012125;28;20053;-81
2022/01/15 12:23:18;;;;;;;27.38;19.90;;;5.50;99.90;;;;;;5028754;28;20034;-81
2022/01/15 12:25:45;;;;;;;24.88;17.35;;;5.50;99.90;;;;;;5011444;28;20042;-81
2022/01/15 12:28:16;;;;;;;26.40;18.63;;;5.50;99.90;;;;;;4995873;28;20184;-81
2022/01/15 12:30:50;;;;;;;23.88;16.88;;;5.50;99.90;;;;;;5012182;28;20096;-81
2022/01/15 12:33:17;;;;;;;24.13;17.77;;;5.50;99.90;;;;;;5028600;28;20044;-81
2022/01/15 12:35:47;;;;;;;22.15;16.60;;;5.50;99.90;;;;;;5012053;28;20132;-81
2022/01/15 12:38:25;;;;;;;24.08;17.27;;;5.50;99.90;;;;;;5029805;28;20405;-81
2022/01/15 12:41:01;;;;;;;25.92;16.80;;;5.60;99.90;;;;;;4999688;28;20042;-81
2022/01/15 12:43:29;;;;;;;23.67;15.50;;;5.60;99.90;;;;;;5015331;28;20073;-81
2022/01/15 12:46:06;;;;;;;13.70;8.93;;;5.60;99.90;;;;;;5014471;28;20048;-81
2022/01/15 12:48:39;;;;;;;14.50;7.53;;;5.60;99.90;;;;;;5024356;28;20523;-81
2022/01/15 12:51:10;;;;;;;19.00;11.73;;;5.60;99.90;;;;;;5014252;28;20044;-81
2022/01/15 12:53:40;;;;;;;22.80;16.83;;;5.60;99.90;;;;;;5016424;28;20059;-81
2022/01/15 12:56:27;;;;;;;25.05;18.65;;;5.50;99.90;;;;;;5031939;28;20048;-81
2022/01/15 12:58:54;;;;;;;26.95;19.33;;;5.40;99.90;;;;;;5000460;28;20052;-81
2022/01/15 13:01:22;;;;;;;26.48;19.58;;;5.30;99.90;;;;;;5015126;28;20036;-81
2022/01/15 13:03:48;;;;;;;25.83;19.38;;;5.30;99.90;;;;;;5016147;28;20148;-81
2022/01/15 13:06:14;;;;;;;26.33;18.52;;;5.30;99.90;;;;;;5014422;28;20057;-81
2022/01/15 13:08:43;;;;;;;23.17;17.08;;;5.30;99.90;;;;;;5032254;28;20512;-81